Terminal Aerodrome Forecast
Issued by NWS

Home | Current Version | Previous Version | Text Only | Print | Product List | Glossary Off
Versions: 1 2 3 4 5 6 7 8 9 10 11 12 13 14 15 16 17

000
FTUS43 KTOP 231700
TAFFOE
TAF
KFOE 231737Z 2318/2418 22011KT P6SM FEW200
     FM240200 28007KT P6SM SCT120
     FM241600 27011KT P6SM FEW250=

USA.gov is the U.S. government's official web portal to all federal, state and local government web resources and services.